Time;durP1;ratioP1;P1;durP2;ratioP2;P2;SDS_P1;SDS_P2;PMS_P1;PMS_P2;Temp;Humidity;BMP_temperature;BMP_pressure;BME280_temperature;BME280_humidity;BME280_pressure;Samples;Min_cycle;Max_cycle;Signal;HPM_P1;HPM_P2
2022/12/05 00:01:33;;;;;;;11.10;4.83;;;;;;;-5.39;61.22;102477.58;1723674;82;21066;-76
2022/12/05 00:04:03;;;;;;;10.98;5.35;;;;;;;-5.38;61.26;102472.88;1696074;82;21807;-76
2022/12/05 00:06:30;;;;;;;9.30;4.62;;;;;;;-5.37;61.35;102473.32;1702710;83;20980;-76
2022/12/05 00:08:56;;;;;;;15.28;5.60;;;;;;;-5.35;61.41;102485.38;1718892;82;21004;-77
2022/12/05 00:11:27;;;;;;;12.35;4.78;;;;;;;-5.35;61.44;102481.52;1720248;82;21212;-77
2022/12/05 00:13:57;;;;;;;11.63;5.03;;;;;;;-5.33;61.49;102478.55;1726545;81;21158;-76
2022/12/05 00:16:26;;;;;;;10.88;5.42;;;;;;;-5.30;61.56;102483.78;1686277;83;21839;-77
2022/12/05 00:18:55;;;;;;;11.48;5.35;;;;;;;-5.27;61.56;102472.66;1699881;83;21100;-78
2022/12/05 00:21:28;;;;;;;12.63;5.70;;;;;;;-5.26;61.61;102467.53;1697809;82;21443;-76
2022/12/05 00:23:56;;;;;;;11.15;5.40;;;;;;;-5.22;61.67;102470.59;1718982;82;21141;-74
2022/12/05 00:26:25;;;;;;;10.25;4.53;;;;;;;-5.22;61.73;102467.16;1699468;82;21060;-75
2022/12/05 00:28:52;;;;;;;10.13;4.15;;;;;;;-5.21;61.84;102463.34;1707234;82;21828;-76
2022/12/05 00:31:21;;;;;;;8.23;4.08;;;;;;;-5.22;62.15;102466.73;1728494;81;21039;-76
2022/12/05 00:33:53;;;;;;;12.05;4.08;;;;;;;-5.24;62.46;102463.69;1690507;82;21040;-74
2022/12/05 00:36:24;;;;;;;6.28;3.45;;;;;;;-5.24;62.67;102468.42;1703785;82;21200;-77
2022/12/05 00:38:51;;;;;;;7.17;3.40;;;;;;;-5.25;62.88;102464.11;1701998;83;21035;-76
2022/12/05 00:41:23;;;;;;;9.68;3.50;;;;;;;-5.26;63.08;102458.94;1706404;83;22889;-76
2022/12/05 00:43:50;;;;;;;5.87;3.17;;;;;;;-5.27;63.19;102459.36;1721966;82;21043;-76
2022/12/05 00:46:22;;;;;;;5.50;3.20;;;;;;;-5.27;63.31;102461.94;1728277;80;21004;-76
2022/12/05 00:48:49;;;;;;;5.78;3.30;;;;;;;-5.26;63.42;102462.38;1733179;82;20969;-76
2022/12/05 00:51:19;;;;;;;7.25;3.35;;;;;;;-5.27;63.54;102462.36;1721356;82;21476;-76
2022/12/05 00:53:46;;;;;;;9.15;4.00;;;;;;;-5.28;63.63;102457.63;1732371;81;21924;-76
2022/12/05 00:56:22;;;;;;;11.40;3.85;;;;;;;-5.25;63.75;102456.80;1722165;81;21065;-77
2022/12/05 00:58:50;;;;;;;7.00;3.42;;;;;;;-5.23;63.81;102457.27;1703975;82;21071;-76
2022/12/05 01:01:24;;;;;;;8.58;3.60;;;;;;;-5.22;63.86;102451.28;1736669;82;21022;-77
2022/12/05 01:03:54;;;;;;;7.42;3.72;;;;;;;-5.20;63.86;102453.91;1730372;82;21071;-76
2022/12/05 01:06:22;;;;;;;5.80;3.22;;;;;;;-5.23;63.86;102453.83;1718513;82;21984;-76
2022/12/05 01:08:48;;;;;;;5.70;3.25;;;;;;;-5.25;63.90;102448.66;1717277;82;20956;-77
2022/12/05 01:11:17;;;;;;;6.65;3.65;;;;;;;-5.25;63.94;102452.52;1713142;82;21084;-76
2022/12/05 01:13:45;;;;;;;6.10;3.30;;;;;;;-5.25;63.97;102452.94;1708788;82;21471;-77
2022/12/05 01:16:31;;;;;;;7.62;3.55;;;;;;;-5.25;64.07;102438.77;1723341;82;20965;-77
2022/12/05 01:18:59;;;;;;;10.82;3.77;;;;;;;-5.26;64.09;102443.06;1713778;81;21808;-77
2022/12/05 01:21:25;;;;;;;7.65;3.42;;;;;;;-5.27;64.12;102441.33;1695230;81;21001;-77
2022/12/05 01:23:52;;;;;;;7.00;3.42;;;;;;;-5.27;64.13;102434.89;1703162;82;21108;-77
2022/12/05 01:26:20;;;;;;;6.97;3.10;;;;;;;-5.24;64.17;102439.22;1723099;81;21040;-77
2022/12/05 01:28:46;;;;;;;6.43;3.40;;;;;;;-5.25;64.21;102436.20;1706312;82;21165;-77
2022/12/05 01:31:27;;;;;;;6.20;3.55;;;;;;;-5.29;64.15;102434.00;1722673;81;21868;-76
2022/12/05 01:33:55;;;;;;;12.33;3.65;;;;;;;-5.31;64.21;102433.50;1725258;82;21040;-76
2022/12/05 01:36:22;;;;;;;5.75;3.15;;;;;;;-5.33;64.22;102432.61;1677269;81;21091;-76
2022/12/05 01:38:48;;;;;;;8.78;3.75;;;;;;;-5.35;64.25;102433.00;1717942;81;20935;-75
2022/12/05 01:41:20;;;;;;;10.15;3.67;;;;;;;-5.36;64.28;102427.41;1694819;83;21672;-76
2022/12/05 01:44:05;;;;;;;5.92;2.95;;;;;;;-5.38;64.34;102425.23;1709432;81;21917;-76
2022/12/05 01:46:36;;;;;;;8.03;3.37;;;;;;;-5.38;64.39;102428.67;1701367;83;20970;-76
2022/12/05 01:49:12;;;;;;;6.72;3.47;;;;;;;-5.36;64.43;102420.97;1703633;80;20996;-76
2022/12/05 01:51:41;;;;;;;8.13;3.17;;;;;;;-5.38;64.35;102416.22;1678005;83;21067;-76
2022/12/05 01:54:08;;;;;;;7.10;3.05;;;;;;;-5.41;64.45;102417.42;1675585;83;21021;-77
2022/12/05 01:56:35;;;;;;;6.87;3.50;;;;;;;-5.41;64.54;102417.00;1681642;83;21583;-77
2022/12/05 01:59:03;;;;;;;8.70;3.60;;;;;;;-5.41;64.64;102413.56;1680788;83;20965;-76
2022/12/05 02:01:29;;;;;;;7.65;3.60;;;;;;;-5.43;64.57;102414.83;1714575;82;20992;-76
2022/12/05 02:03:56;;;;;;;7.60;3.40;;;;;;;-5.42;64.64;102415.27;1730810;81;21007;-76
2022/12/05 02:06:25;;;;;;;6.35;3.27;;;;;;;-5.45;64.68;102407.50;1729008;82;21574;-76
2022/12/05 02:08:55;;;;;;;7.55;3.62;;;;;;;-5.44;64.75;102413.52;1707888;82;22557;-76
2022/12/05 02:11:23;;;;;;;5.30;3.05;;;;;;;-5.46;64.73;102408.34;1702393;81;21459;-76
2022/12/05 02:13:58;;;;;;;8.00;3.22;;;;;;;-5.45;64.83;102402.77;1690096;83;20999;-77
2022/12/05 02:16:48;;;;;;;6.87;2.98;;;;;;;-5.44;64.87;102407.95;1687302;83;21025;-76
2022/12/05 02:19:50;;;;;;;7.37;3.12;;;;;;;-5.44;64.81;102405.38;1686053;83;21261;-76
2022/12/05 02:22:31;;;;;;;8.03;3.50;;;;;;;-5.46;64.88;102401.91;1690924;83;21828;-76
2022/12/05 02:25:18;;;;;;;8.33;3.90;;;;;;;-5.45;64.94;102403.64;1704206;82;21111;-76
2022/12/05 02:28:00;;;;;;;7.72;3.60;;;;;;;-5.42;64.98;102397.25;1693183;83;20998;-76
2022/12/05 02:30:27;;;;;;;5.62;3.60;;;;;;;-5.41;64.98;102401.98;1669468;82;21436;-76
2022/12/05 02:33:23;;;;;;;7.75;3.58;;;;;;;-5.43;65.00;102389.08;1703900;82;21055;-76
2022/12/05 02:36:13;;;;;;;8.05;3.70;;;;;;;-5.42;65.03;102392.09;1680867;84;21940;-76
2022/12/05 02:38:54;;;;;;;6.87;3.65;;;;;;;-5.43;65.08;102392.94;1664534;83;21053;-76
2022/12/05 02:41:33;;;;;;;7.15;3.40;;;;;;;-5.46;65.17;102389.03;1681048;84;20977;-76
2022/12/05 02:44:11;;;;;;;8.50;3.70;;;;;;;-5.45;65.27;102386.03;1680697;84;21092;-76
2022/12/05 02:46:38;;;;;;;5.80;3.20;;;;;;;-5.42;65.33;102390.81;1678686;84;21458;-77
2022/12/05 02:49:12;;;;;;;6.28;4.05;;;;;;;-5.43;65.31;102392.08;1682998;83;22482;-76
2022/12/05 02:51:42;;;;;;;5.10;3.17;;;;;;;-5.44;65.38;102392.49;1680455;84;20969;-76
2022/12/05 02:54:13;;;;;;;7.28;3.40;;;;;;;-5.43;65.48;102394.23;1682510;84;21016;-76
2022/12/05 02:56:41;;;;;;;6.47;3.47;;;;;;;-5.42;65.50;102386.08;1673002;84;21065;-76
2022/12/05 02:59:07;;;;;;;6.20;3.45;;;;;;;-5.43;65.59;102391.66;1683803;83;21399;-76
2022/12/05 03:01:34;;;;;;;8.83;3.77;;;;;;;-5.41;65.62;102392.96;1680024;84;21832;-77
2022/12/05 03:04:02;;;;;;;6.92;3.80;;;;;;;-5.42;65.65;102391.23;1715814;83;21016;-76
2022/12/05 03:06:37;;;;;;;5.30;3.45;;;;;;;-5.40;65.67;102393.02;1685916;83;21490;-78
2022/12/05 03:09:09;;;;;;;8.35;3.60;;;;;;;-5.40;65.78;102387.87;1661430;83;20977;-76
2022/12/05 03:11:43;;;;;;;5.20;3.02;;;;;;;-5.39;65.84;102384.88;1659055;84;21031;-76
2022/12/05 03:14:20;;;;;;;6.40;3.50;;;;;;;-5.39;65.89;102387.02;1717582;81;21945;-75
2022/12/05 03:16:49;;;;;;;7.92;3.85;;;;;;;-5.39;65.96;102388.31;1704717;82;21507;-76
2022/12/05 05:06:26;;;;;;;7.33;4.20;;;;;;;-5.70;68.38;102379.12;1667842;84;21017;-76
2022/12/05 05:08:55;;;;;;;8.53;4.60;;;;;;;-5.70;68.37;102377.83;1653533;84;21064;-76
2022/12/05 05:11:30;;;;;;;7.58;4.22;;;;;;;-5.72;68.41;102374.79;1637190;85;20989;-77
2022/12/05 05:13:57;;;;;;;7.65;4.15;;;;;;;-5.74;68.43;102367.05;1688442;82;22400;-76
2022/12/05 05:16:33;;;;;;;6.60;4.53;;;;;;;-5.73;68.46;102364.91;1645070;85;22105;-77
2022/12/05 05:19:00;;;;;;;6.78;4.42;;;;;;;-5.72;68.48;102365.36;1725331;81;21065;-77
2022/12/05 05:21:34;;;;;;;6.83;4.17;;;;;;;-5.70;68.56;102372.69;1722872;82;21004;-76
2022/12/05 05:24:01;;;;;;;7.55;4.05;;;;;;;-5.69;68.61;102360.30;1721432;81;21576;-77
2022/12/05 05:26:28;;;;;;;7.37;4.28;;;;;;;-5.72;68.58;102365.36;1725944;82;21040;-76
2022/12/05 05:28:56;;;;;;;5.75;4.12;;;;;;;-5.72;68.64;102369.64;1731263;80;21902;-77
2022/12/05 05:31:23;;;;;;;8.15;4.50;;;;;;;-5.73;68.67;102370.48;1726329;82;20981;-76
2022/12/05 05:33:52;;;;;;;7.37;4.53;;;;;;;-5.76;68.75;102370.02;1736035;81;20953;-78
2022/12/05 05:36:19;;;;;;;9.30;4.72;;;;;;;-5.78;68.82;102366.13;1678741;82;21060;-76
2022/12/05 05:38:51;;;;;;;9.88;5.33;;;;;;;-5.77;68.89;102365.28;1742598;80;21063;-77
2022/12/05 05:41:22;;;;;;;7.87;4.50;;;;;;;-5.74;68.96;102367.05;1723818;81;21854;-77
2022/12/05 05:43:49;;;;;;;9.28;4.87;;;;;;;-5.71;69.02;102371.38;1702422;82;21134;-76
2022/12/05 05:46:19;;;;;;;7.65;4.58;;;;;;;-5.70;69.06;102373.11;1697070;83;21031;-74
2022/12/05 05:48:47;;;;;;;7.28;4.00;;;;;;;-5.71;69.12;102375.23;1726196;82;21040;-76
2022/12/05 05:51:15;;;;;;;8.63;4.53;;;;;;;-5.73;69.18;102373.06;1718674;82;21078;-76
2022/12/05 05:53:41;;;;;;;9.28;5.05;;;;;;;-5.76;69.25;102366.16;1711095;82;21932;-77
2022/12/05 05:56:12;;;;;;;9.10;4.83;;;;;;;-5.78;69.33;102371.28;1691855;81;20953;-77
2022/12/05 05:58:39;;;;;;;9.23;4.70;;;;;;;-5.78;69.42;102376.42;1713580;82;20964;-77
2022/12/05 06:01:12;;;;;;;10.32;4.75;;;;;;;-5.76;69.51;102373.88;1720109;82;21006;-77
2022/12/05 06:03:41;;;;;;;;;;;;;;;-5.79;69.52;102378.55;1717138;81;20948;-77
2022/12/05 06:06:10;;;;;;;10.38;4.78;;;;;;;-5.79;69.56;102384.08;1713908;82;22000;-76
2022/12/05 06:08:38;;;;;;;10.15;5.10;;;;;;;-5.83;69.57;102379.73;1721656;81;20990;-77
2022/12/05 06:11:09;;;;;;;9.80;5.00;;;;;;;-5.84;69.63;102377.58;1729060;82;21063;-77
2022/12/05 06:13:36;;;;;;;10.55;5.78;;;;;;;-5.84;69.66;102377.58;1716625;82;20992;-76
2022/12/05 06:16:06;;;;;;;10.82;5.90;;;;;;;-5.83;69.75;102382.30;1667970;83;21110;-76
2022/12/05 06:18:33;;;;;;;9.60;5.72;;;;;;;-5.84;69.75;102386.58;1706118;81;21916;-81
2022/12/05 06:21:00;;;;;;;10.90;5.80;;;;;;;-5.83;69.74;102387.03;1724192;82;20952;-77
2022/12/05 06:23:28;;;;;;;9.48;5.67;;;;;;;-5.83;69.70;102384.45;1709314;82;21064;-76
2022/12/05 06:25:55;;;;;;;8.40;4.90;;;;;;;-5.84;69.69;102389.16;1720293;82;20992;-77
2022/12/05 06:28:24;;;;;;;9.03;5.25;;;;;;;-5.85;69.73;102388.71;1707382;82;21631;-77
2022/12/05 06:30:51;;;;;;;9.13;5.00;;;;;;;-5.85;69.76;102388.71;1701547;81;22451;-77
2022/12/05 06:33:18;;;;;;;8.40;4.87;;;;;;;-5.84;69.76;102391.73;1704632;82;21097;-78
2022/12/05 06:35:45;;;;;;;9.63;5.25;;;;;;;-5.83;69.76;102393.46;1700221;82;21123;-77
2022/12/05 06:38:11;;;;;;;8.50;5.07;;;;;;;-5.84;69.72;102394.30;1718685;81;21076;-76
2022/12/05 06:40:43;;;;;;;8.10;5.08;;;;;;;-5.83;69.76;102397.74;1721606;82;21550;-76
2022/12/05 06:43:10;;;;;;;11.88;4.55;;;;;;;-5.81;69.83;102398.22;1719573;82;21910;-77
2022/12/05 06:45:37;;;;;;;10.78;5.50;;;;;;;-5.81;69.81;102403.36;1710873;82;21064;-76
2022/12/05 06:48:05;;;;;;;8.65;4.50;;;;;;;-5.84;69.81;102405.88;1715074;81;21135;-77
2022/12/05 06:50:32;;;;;;;7.60;4.83;;;;;;;-5.84;69.86;102403.31;1714042;81;20984;-76
2022/12/05 06:52:59;;;;;;;10.03;5.70;;;;;;;-5.81;69.92;102397.34;1721313;82;21147;-78
2022/12/05 06:55:26;;;;;;;10.88;6.42;;;;;;;-5.79;69.98;102393.99;1673517;84;22373;-77
2022/12/05 06:57:52;;;;;;;9.80;5.83;;;;;;;-5.73;70.00;102395.80;1672382;84;21156;-75
2022/12/05 07:03:05;;;;;;;10.23;5.50;;;;;;;-5.66;69.83;102394.22;1667257;83;21008;-76
2022/12/05 07:05:33;;;;;;;10.25;6.22;;;;;;;-5.66;69.81;102396.80;1677702;84;21099;-77
2022/12/05 07:08:00;;;;;;;12.68;5.72;;;;;;;-5.67;69.73;102388.20;1681626;82;21765;-77
2022/12/05 07:10:27;;;;;;;13.68;6.00;;;;;;;-5.66;69.73;102386.50;1686774;83;21052;-77
2022/12/05 07:12:55;;;;;;;11.00;5.67;;;;;;;-5.63;69.80;102385.27;1678552;84;21119;-78
2022/12/05 07:15:22;;;;;;;10.23;5.30;;;;;;;-5.61;69.64;102388.30;1681155;82;20905;-77
2022/12/05 07:17:49;;;;;;;7.62;4.90;;;;;;;-5.59;69.54;102385.79;1732793;82;20994;-77
2022/12/05 07:20:16;;;;;;;8.68;5.50;;;;;;;-5.58;69.46;102387.09;1712226;82;22225;-77
2022/12/05 07:22:44;;;;;;;9.70;6.08;;;;;;;-5.57;69.47;102386.26;1707808;83;20853;-77
2022/12/05 07:25:11;;;;;;;10.38;5.65;;;;;;;-5.54;69.42;102385.44;1670451;84;21128;-76
2022/12/05 07:27:37;;;;;;;14.75;5.58;;;;;;;-5.51;69.40;102391.92;1713151;81;20997;-77
2022/12/05 07:30:08;;;;;;;9.15;5.92;;;;;;;-5.48;69.29;102386.85;1730643;81;21052;-76
2022/12/05 07:32:35;;;;;;;10.25;5.80;;;;;;;-5.46;69.15;102389.03;1678701;83;21800;-77
2022/12/05 07:35:06;;;;;;;9.85;5.20;;;;;;;-5.44;69.07;102391.63;1713027;82;20937;-76
2022/12/05 07:37:32;;;;;;;8.63;5.22;;;;;;;-5.41;68.98;102388.67;1727318;81;21478;-76
2022/12/05 07:39:59;;;;;;;9.15;5.22;;;;;;;-5.35;69.02;102389.22;1708833;82;21161;-76
2022/12/05 07:42:26;;;;;;;8.93;4.92;;;;;;;-5.32;68.96;102390.14;1679020;81;21072;-76
2022/12/05 07:44:52;;;;;;;10.13;5.33;;;;;;;-5.28;68.82;102389.79;1694276;83;21878;-76
2022/12/05 07:47:19;;;;;;;10.18;5.30;;;;;;;-5.27;68.71;102390.23;1701112;83;21035;-76
2022/12/05 07:49:47;;;;;;;9.28;5.12;;;;;;;-5.26;68.64;102391.97;1716961;82;21053;-76
2022/12/05 07:52:14;;;;;;;8.28;5.15;;;;;;;-5.22;68.55;102389.45;1704440;81;21547;-79
2022/12/05 07:54:42;;;;;;;10.53;5.80;;;;;;;-5.21;68.39;102392.51;1705304;81;21025;-76
2022/12/05 07:57:08;;;;;;;12.00;5.22;;;;;;;-5.20;68.32;102390.38;1688375;82;21918;-75
2022/12/05 07:59:35;;;;;;;12.63;5.67;;;;;;;-5.18;68.20;102387.82;1688696;82;21012;-76
2022/12/05 08:02:01;;;;;;;10.45;5.00;;;;;;;-5.16;67.99;102382.69;1685569;83;21033;-77
2022/12/05 08:04:28;;;;;;;6.92;4.47;;;;;;;-5.15;67.89;102380.55;1690086;82;21016;-77
2022/12/05 08:06:54;;;;;;;8.53;4.97;;;;;;;-5.16;67.84;102382.69;1712939;81;21556;-76
2022/12/05 08:09:21;;;;;;;7.05;4.30;;;;;;;-5.16;67.80;102380.98;1730133;82;22583;-76
2022/12/05 08:11:48;;;;;;;6.45;4.30;;;;;;;-5.14;67.60;102384.87;1726314;81;20992;-76
2022/12/05 08:14:16;;;;;;;8.58;5.15;;;;;;;-5.17;67.37;102375.81;1728614;81;21032;-76
2022/12/05 08:16:43;;;;;;;11.00;5.35;;;;;;;-5.22;67.31;102378.28;1720428;81;21025;-77
2022/12/05 08:19:15;;;;;;;8.98;5.08;;;;;;;-5.23;67.38;102377.42;1727484;81;20961;-75
2022/12/05 08:21:41;;;;;;;8.40;4.92;;;;;;;-5.20;67.33;102377.50;1712053;82;22494;-75
2022/12/05 08:24:11;;;;;;;8.75;5.22;;;;;;;-5.18;67.30;102376.23;1714702;82;20961;-75
2022/12/05 08:26:42;;;;;;;10.30;5.70;;;;;;;-5.16;67.27;102377.11;1726412;81;21141;-76
2022/12/05 08:29:11;;;;;;;8.43;5.10;;;;;;;-5.14;67.15;102368.13;1721461;82;21016;-76
2022/12/05 08:31:47;;;;;;;10.17;4.70;;;;;;;-5.13;67.11;102375.00;1736194;82;21472;-76
2022/12/05 08:34:13;;;;;;;10.72;5.47;;;;;;;-5.11;67.10;102363.04;1715947;82;21729;-76
2022/12/05 08:36:40;;;;;;;9.25;5.72;;;;;;;-5.08;67.09;102370.81;1716543;81;20867;-77
2022/12/05 08:39:08;;;;;;;12.85;5.80;;;;;;;-5.05;67.09;102361.84;1722012;82;21165;-77
2022/12/05 08:41:34;;;;;;;8.18;5.45;;;;;;;-5.02;67.02;102360.59;1694201;81;21551;-77
2022/12/05 08:44:04;;;;;;;10.30;5.08;;;;;;;-5.01;66.97;102351.62;1652046;84;21057;-77
2022/12/05 08:46:32;;;;;;;8.88;4.90;;;;;;;-4.99;66.99;102354.22;1665001;84;21916;-76
2022/12/05 08:48:59;;;;;;;10.75;5.08;;;;;;;-4.98;66.83;102348.22;1729029;82;20964;-76
2022/12/05 08:51:25;;;;;;;9.58;5.17;;;;;;;-4.99;66.77;102349.06;1709952;82;21022;-76
2022/12/05 08:53:52;;;;;;;11.05;5.30;;;;;;;-5.01;66.70;102342.60;1713807;81;21199;-76
2022/12/05 08:56:19;;;;;;;9.35;4.67;;;;;;;-5.05;66.61;102342.51;1687041;83;21037;-77
2022/12/05 08:58:47;;;;;;;8.35;5.33;;;;;;;-5.08;66.65;102345.05;1700657;82;22607;-77
2022/12/05 09:01:17;;;;;;;7.50;5.22;;;;;;;-5.09;66.72;102351.05;1705965;81;21254;-76
2022/12/05 09:03:44;;;;;;;8.43;5.42;;;;;;;-5.05;66.80;102337.36;1708770;82;21032;-77
2022/12/05 09:06:15;;;;;;;11.10;5.28;;;;;;;-5.04;66.69;102335.22;1678029;81;20997;-77
2022/12/05 09:08:42;;;;;;;12.68;5.33;;;;;;;-5.04;66.69;102328.36;1692022;84;21086;-77
2022/12/05 09:11:16;;;;;;;10.15;5.65;;;;;;;-5.04;66.68;102327.48;1692528;83;21935;-77
2022/12/05 09:13:43;;;;;;;11.50;5.75;;;;;;;-5.01;66.78;102315.55;1699621;81;21040;-75
2022/12/05 09:16:13;;;;;;;9.40;5.45;;;;;;;-4.95;66.85;102318.62;1715499;81;20980;-77
2022/12/05 09:18:39;;;;;;;11.60;6.35;;;;;;;-4.94;66.71;102315.20;1706724;81;21069;-76
2022/12/05 09:21:12;;;;;;;9.40;5.40;;;;;;;-4.96;66.65;102313.02;1706214;83;21530;-76
2022/12/05 09:23:39;;;;;;;;;;;;;;;-4.96;66.68;102309.16;1715969;81;21909;-76
2022/12/05 09:26:09;;;;;;;13.70;6.60;;;;;;;-4.91;66.80;102304.95;1718059;82;20140;-77
2022/12/05 09:28:36;;;;;;;10.58;6.30;;;;;;;-4.87;66.83;102301.56;1705838;83;21474;-75
2022/12/05 09:31:11;;;;;;;10.88;5.72;;;;;;;-4.80;66.76;102299.95;1702773;83;21097;-75
2022/12/05 09:33:37;;;;;;;10.10;5.62;;;;;;;-4.80;66.61;102289.64;1704728;83;21068;-74
2022/12/05 09:36:08;;;;;;;9.70;4.95;;;;;;;-4.82;66.52;102288.77;1720982;81;21944;-76
2022/12/05 09:38:35;;;;;;;8.13;4.62;;;;;;;-4.81;66.62;102285.34;1710493;82;21017;-75
2022/12/05 09:42:06;;;;;;;9.05;5.20;;;;;;;-4.84;66.54;102282.27;1714714;82;21056;-76
2022/12/05 09:44:54;;;;;;;11.78;5.67;;;;;;;-4.86;66.59;102283.09;1702768;82;21001;-73
2022/12/05 09:47:47;;;;;;;9.83;5.50;;;;;;;-4.86;66.69;102276.23;1706445;82;21029;-73
2022/12/05 09:50:45;;;;;;;11.50;6.05;;;;;;;-4.85;66.72;102274.52;1692299;82;21905;-74
2022/12/05 09:53:36;;;;;;;8.45;4.87;;;;;;;-4.86;66.73;102278.81;1701929;82;21028;-74
2022/12/05 09:56:25;;;;;;;12.33;5.58;;;;;;;-4.88;66.88;102280.93;1725777;81;21124;-73
2022/12/05 09:58:53;;;;;;;8.80;5.25;;;;;;;-4.89;66.89;102285.22;1697525;83;21056;-73
2022/12/05 10:01:34;;;;;;;8.03;5.17;;;;;;;-4.92;66.95;102278.74;1698698;83;21077;-73
2022/12/05 10:04:33;;;;;;;11.83;6.03;;;;;;;-4.89;67.07;102277.48;1682238;83;22115;-72
2022/12/05 10:07:21;;;;;;;14.65;6.78;;;;;;;-4.87;67.07;102264.62;1683059;83;21068;-72
2022/12/05 10:10:22;;;;;;;10.90;5.87;;;;;;;-4.86;67.12;102263.77;1696116;82;21581;-74
2022/12/05 10:13:17;;;;;;;10.53;5.65;;;;;;;-4.80;67.25;102253.56;1676018;83;21494;-72
2022/12/05 10:15:53;;;;;;;11.65;5.47;;;;;;;-4.77;67.18;102249.30;1699303;82;21004;-75
2022/12/05 10:18:33;;;;;;;8.43;4.95;;;;;;;-4.76;67.13;102248.88;1704977;82;21955;-72
2022/12/05 10:21:10;;;;;;;11.33;5.67;;;;;;;-4.76;67.10;102243.72;1719570;81;21043;-73
2022/12/05 10:23:54;;;;;;;9.63;6.03;;;;;;;-4.76;67.16;102242.00;1726020;80;21028;-73
2022/12/05 10:26:23;;;;;;;10.93;5.50;;;;;;;-4.73;67.14;102243.75;1720191;80;21553;-73
2022/12/05 10:28:55;;;;;;;8.68;5.33;;;;;;;-4.70;67.17;102252.84;1711823;81;21459;-71
2022/12/05 10:31:26;;;;;;;8.20;4.75;;;;;;;-4.70;67.08;102247.25;1688308;83;23179;-74
2022/12/05 10:34:04;;;;;;;10.75;5.10;;;;;;;-4.69;67.07;102248.12;1707245;82;21001;-75
2022/12/05 10:36:31;;;;;;;9.58;5.50;;;;;;;-4.70;66.99;102244.67;1726664;80;21047;-76
2022/12/05 10:38:58;;;;;;;10.30;5.22;;;;;;;-4.72;67.05;102239.93;1666793;83;21065;-77
2022/12/05 10:41:24;;;;;;;8.30;5.37;;;;;;;-4.68;67.13;102239.11;1685486;83;21120;-77
2022/12/05 10:43:52;;;;;;;9.70;5.62;;;;;;;-4.64;67.09;102234.42;1675394;84;21845;-76
2022/12/05 10:46:18;;;;;;;11.57;6.60;;;;;;;-4.65;67.03;102233.98;1708842;82;21030;-76
2022/12/05 10:48:46;;;;;;;11.65;5.70;;;;;;;-4.61;67.10;102234.48;1732529;82;21446;-77
2022/12/05 10:51:17;;;;;;;8.88;4.95;;;;;;;-4.55;67.02;102232.38;1713819;81;21115;-76
2022/12/05 10:53:49;;;;;;;9.65;5.33;;;;;;;-4.50;66.90;102236.33;1686791;82;21249;-77
2022/12/05 10:56:49;;;;;;;11.65;5.97;;;;;;;-4.55;66.79;102232.38;1717000;81;21993;-77
2022/12/05 10:59:28;;;;;;;11.57;5.12;;;;;;;-4.54;66.77;102225.09;1724921;81;21438;-76
2022/12/05 11:01:57;;;;;;;9.45;4.78;;;;;;;-4.55;66.61;102222.50;1721091;81;21539;-76
2022/12/05 11:04:33;;;;;;;10.15;5.47;;;;;;;-4.59;66.55;102216.87;1697980;81;21058;-77
2022/12/05 11:07:03;;;;;;;10.70;5.40;;;;;;;-4.60;66.65;102210.85;1695465;81;21576;-78
2022/12/05 11:09:37;;;;;;;8.98;4.92;;;;;;;-4.55;66.76;102205.31;1689811;83;21951;-78
2022/12/05 11:12:19;;;;;;;10.58;5.55;;;;;;;-4.49;66.77;102206.69;1718419;81;21035;-78
2022/12/05 11:15:20;;;;;;;9.98;5.40;;;;;;;-4.42;66.78;102208.92;1699378;82;21427;-76
2022/12/05 11:17:56;;;;;;;9.70;5.70;;;;;;;-4.36;66.68;102198.65;1727526;81;21529;-77
2022/12/05 11:20:32;;;;;;;8.13;5.12;;;;;;;-4.27;66.74;102197.89;1741682;82;21095;-78
2022/12/05 11:22:59;;;;;;;9.08;4.60;;;;;;;-4.20;66.47;102199.69;1735908;81;22522;-77
2022/12/05 11:25:35;;;;;;;10.60;5.33;;;;;;;-4.20;66.22;102193.24;1678837;82;21073;-78
2022/12/05 11:28:22;;;;;;;8.30;4.78;;;;;;;-4.23;66.16;102190.64;1706981;82;21090;-77
2022/12/05 11:31:16;;;;;;;8.93;5.10;;;;;;;-4.22;66.09;102187.20;1713329;80;21325;-81
2022/12/05 11:33:42;;;;;;;;;;;;;;;-4.24;65.97;102187.20;1705885;82;21019;-78
2022/12/05 11:36:18;;;;;;;9.03;5.08;;;;;;;-4.23;65.91;102193.22;1698657;81;22428;-77
2022/12/05 11:38:45;;;;;;;8.68;4.80;;;;;;;-4.25;65.90;102186.73;1700872;82;21458;-75
2022/12/05 11:41:34;;;;;;;8.63;4.80;;;;;;;-4.29;65.77;102181.11;1694907;83;21197;-72
2022/12/05 11:44:29;;;;;;;7.90;4.85;;;;;;;-4.28;65.76;102184.55;1690039;82;21100;-75
2022/12/05 11:47:23;;;;;;;10.60;5.30;;;;;;;-4.28;65.81;102178.97;1683987;82;21087;-74
2022/12/05 11:50:01;;;;;;;10.72;5.40;;;;;;;-4.19;65.90;102173.03;1702624;81;21966;-72
2022/12/05 11:53:16;;;;;;;10.32;5.40;;;;;;;-4.13;65.81;102167.52;1665170;83;21051;-76
2022/12/05 11:55:49;;;;;;;8.48;5.15;;;;;;;-4.08;65.61;102170.13;1714188;82;21091;-78
2022/12/05 11:58:32;;;;;;;;;;;;;;;-4.05;65.39;102163.73;1708204;82;21043;-72
2022/12/05 12:01:24;;;;;;;7.50;4.58;;;;;;;-4.05;65.36;102165.02;1721811;82;20174;-74
2022/12/05 12:04:22;;;;;;;8.28;4.85;;;;;;;-4.01;65.34;102156.44;1671768;83;21941;-75
2022/12/05 12:07:10;;;;;;;8.80;4.83;;;;;;;-3.96;65.33;102159.05;1722784;81;20987;-71
2022/12/05 12:10:22;;;;;;;7.65;4.53;;;;;;;-3.85;65.31;102154.88;1692591;83;21049;-74
2022/12/05 12:13:25;;;;;;;8.40;4.65;;;;;;;-3.72;65.29;102155.82;1716078;82;21067;-74
2022/12/05 12:16:18;;;;;;;7.08;4.33;;;;;;;-3.63;64.88;102152.02;1669716;84;21535;-74
2022/12/05 12:19:18;;;;;;;8.78;4.90;;;;;;;-3.65;64.63;102149.43;1716057;81;27808;-73
2022/12/05 12:22:17;;;;;;;11.28;4.47;;;;;;;-3.66;64.35;102137.80;1668490;83;21067;-77
2022/12/05 12:24:52;;;;;;;8.28;4.42;;;;;;;-3.60;64.48;102139.98;1674115;84;21058;-75
2022/12/05 12:27:39;;;;;;;9.25;4.45;;;;;;;-3.57;64.25;102128.41;1689210;83;20992;-73
2022/12/05 12:30:20;;;;;;;11.35;5.20;;;;;;;-3.55;64.05;102127.12;1715209;82;21122;-74
2022/12/05 12:33:07;;;;;;;9.63;5.08;;;;;;;-3.54;63.99;102124.97;1718738;81;21864;-74
2022/12/05 12:36:15;;;;;;;9.40;4.70;;;;;;;-3.51;63.95;102124.98;1719683;80;21087;-74
2022/12/05 12:39:05;;;;;;;7.08;4.03;;;;;;;-3.49;63.67;102118.95;1668925;83;21115;-75
2022/12/05 12:42:15;;;;;;;6.90;3.80;;;;;;;-3.50;63.39;102112.50;1717764;81;21063;-73
2022/12/05 12:45:19;;;;;;;7.30;3.80;;;;;;;-3.56;63.28;102110.76;1713731;82;21089;-72
2022/12/05 12:48:14;;;;;;;8.13;4.20;;;;;;;-3.54;63.27;102104.31;1720295;82;22276;-73
2022/12/05 12:50:43;;;;;;;7.60;3.77;;;;;;;-3.53;63.08;102103.02;1718523;82;21020;-74
2022/12/05 12:53:34;;;;;;;10.43;3.90;;;;;;;-3.51;63.04;102108.19;1728348;82;21020;-78
2022/12/05 12:56:12;;;;;;;8.25;4.35;;;;;;;-3.44;63.02;102106.09;1702432;82;21069;-77
2022/12/05 12:59:19;;;;;;;10.90;4.28;;;;;;;-3.30;63.00;102107.45;1685925;83;21055;-77
2022/12/05 13:02:21;;;;;;;7.60;3.47;;;;;;;-3.15;63.09;102098.48;1696274;83;22553;-77
2022/12/05 13:05:20;;;;;;;7.60;4.10;;;;;;;-2.95;62.60;102094.27;1713455;82;21077;-77
2022/12/05 13:07:52;;;;;;;8.90;4.53;;;;;;;-2.85;62.29;102097.73;1701408;83;21510;-78
2022/12/05 13:10:43;;;;;;;9.80;4.35;;;;;;;-2.78;61.84;102105.10;1669004;84;21061;-77
2022/12/05 13:13:14;;;;;;;8.28;4.08;;;;;;;-2.77;61.25;102098.64;1693579;82;21437;-77
2022/12/05 13:15:53;;;;;;;8.78;4.47;;;;;;;-2.76;60.96;102096.91;1706558;82;22658;-78
2022/12/05 13:18:23;;;;;;;7.15;3.98;;;;;;;-2.76;60.70;102091.73;1705951;81;21131;-76
2022/12/05 13:20:53;;;;;;;9.05;4.60;;;;;;;-2.70;60.75;102096.91;1696944;83;21017;-78
2022/12/05 13:23:32;;;;;;;7.92;4.58;;;;;;;-2.63;60.59;102098.66;1695584;83;21507;-77
2022/12/05 13:25:59;;;;;;;9.70;4.65;;;;;;;-2.63;60.28;102098.23;1721827;82;21225;-76
2022/12/05 13:28:33;;;;;;;9.38;4.58;;;;;;;-2.68;59.95;102102.97;1727099;81;22596;-77
2022/12/05 13:31:01;;;;;;;8.08;4.08;;;;;;;-2.80;59.96;102098.60;1694243;83;21680;-77
2022/12/05 13:33:48;;;;;;;6.00;3.90;;;;;;;-2.89;60.09;102095.59;1717064;81;21116;-77
2022/12/05 13:42:16;;;;;;;6.75;4.03;;;;;;;-3.14;60.09;102099.34;1694094;82;22430;-79
2022/12/05 13:44:48;;;;;;;10.68;4.55;;;;;;;-3.21;60.29;102091.98;1666790;82;21119;-77
2022/12/05 13:47:35;;;;;;;10.23;4.20;;;;;;;-3.25;60.40;102094.14;1713700;82;21015;-79
2022/12/05 13:50:11;;;;;;;7.72;4.30;;;;;;;-3.30;60.44;102095.81;1716780;82;21000;-79
2022/12/05 13:52:48;;;;;;;8.73;4.05;;;;;;;-3.36;60.61;102097.95;1707928;80;21134;-78